Time;durP1;ratioP1;P1;durP2;ratioP2;P2;SDS_P1;SDS_P2;PMS_P1;PMS_P2;Temp;Humidity;BMP_temperature;BMP_pressure;BME280_temperature;BME280_humidity;BME280_pressure;Samples;Min_cycle;Max_cycle;Signal;HPM_P1;HPM_P2
2023/11/30 00:02:23;;;;;;;23.10;15.17;;;;;;;;;;4995812;28;20551;-77
2023/11/30 00:04:50;;;;;;;26.17;15.23;;;;;;;;;;5002451;28;20486;-76
2023/11/30 00:07:18;;;;;;;22.77;14.93;;;;;;;;;;5001517;28;20480;-76
2023/11/30 00:09:44;;;;;;;23.87;15.10;;;;;;;;;;4997308;28;20544;-77
2023/11/30 00:12:09;;;;;;;23.30;13.80;;;;;;;;;;4999822;28;20451;-77
2023/11/30 00:14:36;;;;;;;19.30;13.60;;;;;;;;;;4999653;28;20487;-77
2023/11/30 00:17:02;;;;;;;20.07;14.40;;;;;;;;;;4995608;28;20248;-77
2023/11/30 00:19:29;;;;;;;24.27;13.20;;;;;;;;;;4994195;28;20459;-78
2023/11/30 00:21:55;;;;;;;20.60;13.57;;;;;;;;;;5004952;28;20643;-78
2023/11/30 00:24:23;;;;;;;28.20;16.40;;;;;;;;;;4997699;28;20510;-77
2023/11/30 00:26:49;;;;;;;25.50;15.27;;;;;;;;;;4990501;28;20524;-78
2023/11/30 00:29:16;;;;;;;22.53;14.30;;;;;;;;;;4995970;28;20476;-77
2023/11/30 00:31:42;;;;;;;25.20;16.10;;;;;;;;;;4996946;28;21126;-78
2023/11/30 00:34:09;;;;;;;23.73;14.97;;;;;;;;;;4991079;28;20555;-77
2023/11/30 00:36:35;;;;;;;24.70;14.60;;;;;;;;;;4992955;28;20538;-78
2023/11/30 00:39:01;;;;;;;27.27;16.73;;;;;;;;;;4999653;28;20880;-77
2023/11/30 00:41:29;;;;;;;22.63;14.97;;;;;;;;;;4996884;28;20491;-77
2023/11/30 00:43:56;;;;;;;23.20;14.07;;;;;;;;;;4997081;28;20451;-77
2023/11/30 00:46:22;;;;;;;27.00;16.87;;;;;;;;;;5001057;28;20527;-77
2023/11/30 00:48:48;;;;;;;26.90;15.93;;;;;;;;;;4998502;28;20546;-78
2023/11/30 00:51:15;;;;;;;24.73;14.40;;;;;;;;;;4998002;28;21003;-77
2023/11/30 00:53:42;;;;;;;29.73;16.60;;;;;;;;;;4999380;28;20544;-78
2023/11/30 00:56:10;;;;;;;24.97;14.43;;;;;;;;;;4996030;28;20504;-77
2023/11/30 00:58:39;;;;;;;27.00;15.27;;;;;;;;;;4989650;28;20890;-78
2023/11/30 01:01:05;;;;;;;27.50;15.53;;;;;;;;;;4994561;28;20543;-79
2023/11/30 01:03:31;;;;;;;26.27;16.60;;;;;;;;;;4994274;28;20491;-78
2023/11/30 01:05:58;;;;;;;27.60;15.97;;;;;;;;;;4998224;28;20555;-78
2023/11/30 01:08:24;;;;;;;29.07;17.17;;;;;;;;;;4996164;28;20515;-79
2023/11/30 01:10:51;;;;;;;25.93;15.77;;;;;;;;;;4990091;28;20488;-78
2023/11/30 01:13:17;;;;;;;25.30;14.97;;;;;;;;;;4993413;28;20506;-79
2023/11/30 01:15:45;;;;;;;26.33;14.23;;;;;;;;;;4993558;28;20531;-78
2023/11/30 01:18:11;;;;;;;28.43;15.40;;;;;;;;;;4995106;28;21008;-79
2023/11/30 01:20:38;;;;;;;26.10;15.40;;;;;;;;;;4992024;28;20464;-78
2023/11/30 01:23:04;;;;;;;30.50;17.17;;;;;;;;;;4989061;28;20464;-79
2023/11/30 01:25:30;;;;;;;29.00;16.87;;;;;;;;;;5000096;28;20568;-78
2023/11/30 01:27:57;;;;;;;36.30;17.60;;;;;;;;;;4996984;28;20490;-78
2023/11/30 01:30:23;;;;;;;33.37;17.70;;;;;;;;;;4991952;28;20554;-78
2023/11/30 01:32:51;;;;;;;34.10;19.00;;;;;;;;;;4995635;28;20483;-78
2023/11/30 01:35:18;;;;;;;31.87;16.80;;;;;;;;;;4996474;28;21129;-79
2023/11/30 01:37:44;;;;;;;33.77;17.00;;;;;;;;;;4993856;28;20440;-78
2023/11/30 01:40:11;;;;;;;34.70;19.53;;;;;;;;;;4998960;28;21071;-78
2023/11/30 01:42:37;;;;;;;30.73;16.80;;;;;;;;;;4994689;28;20984;-79
2023/11/30 01:45:04;;;;;;;32.23;17.50;;;;;;;;;;4998806;28;20490;-79
2023/11/30 01:47:30;;;;;;;29.40;16.80;;;;;;;;;;4995968;28;20515;-79
2023/11/30 01:49:58;;;;;;;28.17;16.40;;;;;;;;;;4992243;28;20511;-79
2023/11/30 01:52:25;;;;;;;30.63;16.40;;;;;;;;;;4995532;28;20525;-79
2023/11/30 01:54:51;;;;;;;29.97;17.13;;;;;;;;;;4992861;28;20456;-78
2023/11/30 01:57:18;;;;;;;33.40;17.60;;;;;;;;;;4998655;28;20546;-78
2023/11/30 01:59:45;;;;;;;31.77;16.47;;;;;;;;;;4995513;28;20898;-78
2023/11/30 02:02:12;;;;;;;35.80;17.63;;;;;;;;;;4986640;28;20483;-78
2023/11/30 02:04:41;;;;;;;34.47;18.70;;;;;;;;;;4995904;28;20527;-78
2023/11/30 02:07:09;;;;;;;36.73;18.37;;;;;;;;;;4999688;28;20763;-77
2023/11/30 02:09:36;;;;;;;38.00;18.77;;;;;;;;;;4991586;28;20475;-77
2023/11/30 02:12:02;;;;;;;33.60;18.10;;;;;;;;;;4989164;28;20457;-78
2023/11/30 02:14:31;;;;;;;35.37;19.53;;;;;;;;;;4993811;28;20488;-79
2023/11/30 02:16:57;;;;;;;42.77;18.60;;;;;;;;;;4995880;28;20452;-78
2023/11/30 02:19:24;;;;;;;32.40;18.00;;;;;;;;;;4995132;28;20452;-78
2023/11/30 02:21:52;;;;;;;37.57;18.10;;;;;;;;;;4989125;28;20460;-78
2023/11/30 02:24:19;;;;;;;31.73;17.40;;;;;;;;;;4987701;28;20480;-78
2023/11/30 02:26:45;;;;;;;37.27;18.80;;;;;;;;;;4990684;28;20974;-78
2023/11/30 02:29:15;;;;;;;33.77;17.40;;;;;;;;;;4991114;28;20522;-78
2023/11/30 02:31:41;;;;;;;33.90;17.70;;;;;;;;;;4988259;28;20460;-77
2023/11/30 02:34:08;;;;;;;39.97;19.17;;;;;;;;;;4994995;28;20930;-78
2023/11/30 02:36:34;;;;;;;38.27;19.33;;;;;;;;;;4989831;28;20488;-78
2023/11/30 02:39:02;;;;;;;30.53;19.20;;;;;;;;;;4995555;28;20487;-78
2023/11/30 02:41:28;;;;;;;35.27;17.30;;;;;;;;;;4990205;28;20893;-78
2023/11/30 02:43:55;;;;;;;34.07;18.10;;;;;;;;;;4992856;28;20451;-79
2023/11/30 02:46:23;;;;;;;34.90;17.93;;;;;;;;;;4997172;28;20496;-78
2023/11/30 02:48:49;;;;;;;34.33;17.13;;;;;;;;;;4996721;28;20538;-78
2023/11/30 02:51:16;;;;;;;35.37;17.50;;;;;;;;;;4997393;28;20519;-78
2023/11/30 02:53:42;;;;;;;30.40;18.03;;;;;;;;;;4991059;28;20468;-79
2023/11/30 02:56:10;;;;;;;36.73;18.43;;;;;;;;;;4989390;28;20484;-78
2023/11/30 02:58:37;;;;;;;35.17;19.57;;;;;;;;;;4994213;28;20532;-78
2023/11/30 03:01:03;;;;;;;39.13;19.00;;;;;;;;;;5000437;28;20459;-79
2023/11/30 03:03:30;;;;;;;43.17;21.70;;;;;;;;;;4998043;28;20546;-79
2023/11/30 03:05:56;;;;;;;44.00;20.97;;;;;;;;;;4995981;28;20876;-79
2023/11/30 03:08:22;;;;;;;38.30;21.30;;;;;;;;;;4999571;28;20574;-79
2023/11/30 03:10:49;;;;;;;43.80;20.27;;;;;;;;;;4988032;28;20492;-78
2023/11/30 03:13:17;;;;;;;38.37;19.63;;;;;;;;;;5001292;28;20519;-78
2023/11/30 03:15:44;;;;;;;40.90;18.20;;;;;;;;;;4999490;28;20491;-79
2023/11/30 03:18:11;;;;;;;33.37;17.50;;;;;;;;;;5000873;28;20464;-79
2023/11/30 03:20:37;;;;;;;33.23;17.50;;;;;;;;;;4993874;28;20488;-80
2023/11/30 03:23:03;;;;;;;39.87;20.20;;;;;;;;;;4997800;28;20507;-80
2023/11/30 03:25:32;;;;;;;41.97;18.83;;;;;;;;;;4999618;28;20495;-80
2023/11/30 03:27:59;;;;;;;35.77;17.87;;;;;;;;;;4996445;28;20487;-80
2023/11/30 03:30:27;;;;;;;34.53;17.30;;;;;;;;;;4999807;28;20456;-79
2023/11/30 03:32:53;;;;;;;33.27;17.67;;;;;;;;;;5000220;28;20563;-80
2023/11/30 03:35:19;;;;;;;34.40;19.77;;;;;;;;;;4997878;28;20463;-80
2023/11/30 03:37:46;;;;;;;38.50;18.27;;;;;;;;;;4999483;28;20448;-79
2023/11/30 03:40:12;;;;;;;30.67;17.10;;;;;;;;;;4991752;28;20939;-79
2023/11/30 03:42:39;;;;;;;39.03;17.30;;;;;;;;;;4995877;28;20488;-80
2023/11/30 03:45:06;;;;;;;35.47;18.00;;;;;;;;;;4997908;28;20463;-80
2023/11/30 03:47:33;;;;;;;36.00;17.87;;;;;;;;;;4997356;28;20491;-80
2023/11/30 03:50:00;;;;;;;36.93;17.80;;;;;;;;;;5000079;28;20559;-79
2023/11/30 03:52:26;;;;;;;33.10;16.80;;;;;;;;;;4999949;28;20519;-79
2023/11/30 03:54:52;;;;;;;35.23;18.80;;;;;;;;;;5000419;28;21052;-80
2023/11/30 03:57:19;;;;;;;35.30;19.37;;;;;;;;;;4999749;28;20483;-80
2023/11/30 03:59:45;;;;;;;29.83;16.83;;;;;;;;;;4991810;28;20484;-79
2023/11/30 04:02:12;;;;;;;31.00;17.80;;;;;;;;;;5000747;28;20893;-80
2023/11/30 04:04:40;;;;;;;29.00;16.97;;;;;;;;;;4999724;28;20506;-79
2023/11/30 04:07:06;;;;;;;39.77;19.13;;;;;;;;;;5000741;28;20535;-79
2023/11/30 04:09:32;;;;;;;33.20;16.83;;;;;;;;;;4994500;28;20527;-79
2023/11/30 04:12:00;;;;;;;33.87;17.97;;;;;;;;;;4994186;28;20558;-79
2023/11/30 04:14:27;;;;;;;39.27;20.57;;;;;;;;;;4999052;28;20463;-78
2023/11/30 04:16:53;;;;;;;38.33;19.80;;;;;;;;;;4997977;28;20519;-79
2023/11/30 05:02:50;;;;;;;63.33;25.33;;;;;;;;;;5207433;23;21083;-83
2023/11/30 05:05:17;;;;;;;61.07;24.80;;;;;;;;;;4991760;28;20445;-83
2023/11/30 05:07:43;;;;;;;63.30;26.07;;;;;;;;;;4997140;28;20463;-83
2023/11/30 05:10:10;;;;;;;62.57;24.80;;;;;;;;;;4967321;28;20560;-83
2023/11/30 05:12:36;;;;;;;60.30;25.63;;;;;;;;;;4984851;28;20526;-82
2023/11/30 05:15:03;;;;;;;49.60;22.13;;;;;;;;;;4982521;28;20555;-82
2023/11/30 05:17:29;;;;;;;47.07;23.27;;;;;;;;;;4987842;28;20474;-82
2023/11/30 05:19:58;;;;;;;43.57;19.43;;;;;;;;;;4982918;28;20517;-87
2023/11/30 05:22:24;;;;;;;41.00;20.10;;;;;;;;;;4985726;28;20460;-82
2023/11/30 05:24:51;;;;;;;47.00;22.23;;;;;;;;;;4989887;28;20506;-82
2023/11/30 05:27:17;;;;;;;53.13;23.57;;;;;;;;;;4991209;28;20463;-83
2023/11/30 05:29:43;;;;;;;53.30;22.47;;;;;;;;;;4990158;28;20507;-83
2023/11/30 05:32:10;;;;;;;44.93;22.30;;;;;;;;;;4992618;28;20495;-84
2023/11/30 05:34:36;;;;;;;48.40;21.83;;;;;;;;;;4993200;28;20491;-85
2023/11/30 05:37:05;;;;;;;44.47;22.90;;;;;;;;;;4985538;28;21010;-84
2023/11/30 05:39:31;;;;;;;44.47;22.87;;;;;;;;;;4983971;28;20460;-84
2023/11/30 05:41:59;;;;;;;42.17;20.57;;;;;;;;;;4984917;28;20527;-83
2023/11/30 05:44:25;;;;;;;41.97;19.57;;;;;;;;;;4993308;28;20503;-85
2023/11/30 05:46:51;;;;;;;45.83;22.20;;;;;;;;;;4985555;28;20529;-84
2023/11/30 05:49:18;;;;;;;44.43;21.13;;;;;;;;;;4981286;28;20527;-84
2023/11/30 05:51:44;;;;;;;50.23;20.60;;;;;;;;;;4982471;28;20496;-84
2023/11/30 05:54:12;;;;;;;44.07;19.67;;;;;;;;;;4991522;28;21003;-84
2023/11/30 05:56:39;;;;;;;41.87;20.90;;;;;;;;;;4984696;28;20463;-85
2023/11/30 05:59:05;;;;;;;45.63;20.83;;;;;;;;;;4994311;28;20484;-85
2023/11/30 06:01:31;;;;;;;48.30;22.13;;;;;;;;;;4996227;28;20459;-84
2023/11/30 06:03:58;;;;;;;53.33;22.67;;;;;;;;;;4982703;28;20484;-84
2023/11/30 06:06:24;;;;;;;53.43;22.70;;;;;;;;;;4984221;28;20537;-84
2023/11/30 06:08:51;;;;;;;52.37;24.60;;;;;;;;;;4989203;28;20574;-84
2023/11/30 06:11:18;;;;;;;45.73;23.53;;;;;;;;;;4983171;28;20809;-85
2023/11/30 06:13:45;;;;;;;41.23;20.33;;;;;;;;;;4994666;28;20535;-86
2023/11/30 06:16:12;;;;;;;45.83;22.13;;;;;;;;;;4983694;28;20483;-86
2023/11/30 06:18:38;;;;;;;49.83;24.10;;;;;;;;;;4994057;28;20471;-86
2023/11/30 06:21:08;;;;;;;47.37;21.47;;;;;;;;;;4982753;28;20535;-87
2023/11/30 06:23:34;;;;;;;52.37;22.00;;;;;;;;;;4985386;28;20547;-88
2023/11/30 06:26:01;;;;;;;43.30;21.83;;;;;;;;;;4980556;28;20894;-86
2023/11/30 06:28:29;;;;;;;48.20;21.83;;;;;;;;;;4991989;28;20495;-86
2023/11/30 06:30:55;;;;;;;52.23;22.43;;;;;;;;;;4982174;28;20464;-89
2023/11/30 06:33:22;;;;;;;45.60;22.40;;;;;;;;;;4995615;28;20487;-88
2023/11/30 06:35:48;;;;;;;52.93;23.37;;;;;;;;;;4984374;28;20484;-85
2023/11/30 06:38:14;;;;;;;49.17;21.00;;;;;;;;;;4985434;28;20476;-85
2023/11/30 06:40:41;;;;;;;63.07;25.10;;;;;;;;;;4992781;28;20473;-85
2023/11/30 06:43:07;;;;;;;52.90;25.17;;;;;;;;;;4991030;28;20543;-88
2023/11/30 06:45:35;;;;;;;52.47;25.30;;;;;;;;;;4990933;28;20555;-85
2023/11/30 06:48:02;;;;;;;46.33;23.50;;;;;;;;;;4992443;28;20490;-88
2023/11/30 06:50:28;;;;;;;57.20;23.20;;;;;;;;;;4989653;28;20492;-85
2023/11/30 06:52:54;;;;;;;63.00;24.40;;;;;;;;;;4988843;28;21103;-85
2023/11/30 06:55:22;;;;;;;63.97;26.97;;;;;;;;;;4989518;28;20487;-88
2023/11/30 06:57:48;;;;;;;60.60;25.37;;;;;;;;;;4988296;28;20456;-88
2023/11/30 07:00:15;;;;;;;70.37;27.63;;;;;;;;;;4992532;28;20524;-87
2023/11/30 07:02:44;;;;;;;65.60;25.67;;;;;;;;;;4991250;28;20618;-88
2023/11/30 07:05:11;;;;;;;65.10;27.50;;;;;;;;;;4990393;28;20868;-88
2023/11/30 07:07:37;;;;;;;59.83;26.73;;;;;;;;;;4991140;28;20512;-88
2023/11/30 07:10:04;;;;;;;57.70;27.00;;;;;;;;;;4988591;28;20491;-88
2023/11/30 07:12:30;;;;;;;67.77;26.90;;;;;;;;;;4988909;28;20468;-84
2023/11/30 07:14:57;;;;;;;56.37;26.90;;;;;;;;;;4996748;28;21112;-86
2023/11/30 07:17:23;;;;;;;56.27;24.10;;;;;;;;;;4990592;28;20511;-88
2023/11/30 07:19:52;;;;;;;53.43;25.87;;;;;;;;;;4987900;28;20523;-88
2023/11/30 07:22:18;;;;;;;68.27;29.07;;;;;;;;;;4990916;28;20454;-88
2023/11/30 07:24:45;;;;;;;64.77;26.47;;;;;;;;;;4991853;28;20915;-88
2023/11/30 07:27:12;;;;;;;59.07;27.20;;;;;;;;;;4989253;28;21068;-88
2023/11/30 07:29:38;;;;;;;62.60;27.40;;;;;;;;;;4989012;28;20543;-88
2023/11/30 07:32:05;;;;;;;61.53;25.63;;;;;;;;;;4990808;28;20482;-88
2023/11/30 07:34:32;;;;;;;61.73;27.70;;;;;;;;;;4994610;28;20460;-88
2023/11/30 07:37:01;;;;;;;57.67;26.27;;;;;;;;;;4993036;28;20488;-87
2023/11/30 07:39:27;;;;;;;59.87;26.27;;;;;;;;;;4983975;28;20445;-88
2023/11/30 07:41:54;;;;;;;64.93;27.30;;;;;;;;;;4983384;28;20531;-87
2023/11/30 07:44:20;;;;;;;62.20;24.85;;;;;;;;;;4987138;28;20492;-87
2023/11/30 07:46:47;;;;;;;62.23;24.90;;;;;;;;;;4982729;28;20260;-88
2023/11/30 07:49:13;;;;;;;50.90;23.77;;;;;;;;;;4987783;28;20511;-87
2023/11/30 07:51:39;;;;;;;56.67;24.63;;;;;;;;;;4984459;28;20503;-86
2023/11/30 07:54:08;;;;;;;61.90;24.17;;;;;;;;;;4982338;28;20693;-84
2023/11/30 07:56:34;;;;;;;59.00;26.53;;;;;;;;;;4991779;28;20499;-85
2023/11/30 07:59:01;;;;;;;62.03;27.43;;;;;;;;;;4997415;28;20486;-83
2023/11/30 08:01:28;;;;;;;67.60;25.50;;;;;;;;;;4996752;28;20468;-82
2023/11/30 08:03:54;;;;;;;62.63;25.53;;;;;;;;;;4990427;28;20505;-83
2023/11/30 08:06:21;;;;;;;60.17;26.50;;;;;;;;;;4990775;28;20524;-83
2023/11/30 08:08:49;;;;;;;63.13;27.00;;;;;;;;;;4991614;28;20455;-85
2023/11/30 08:11:17;;;;;;;79.63;30.40;;;;;;;;;;4990670;28;20499;-83
2023/11/30 08:13:44;;;;;;;78.83;29.37;;;;;;;;;;4983238;28;20480;-83
2023/11/30 08:16:11;;;;;;;77.67;27.67;;;;;;;;;;4983955;28;20473;-84
2023/11/30 08:18:38;;;;;;;75.03;28.37;;;;;;;;;;4990189;28;20980;-83
2023/11/30 08:21:05;;;;;;;75.87;31.47;;;;;;;;;;4997804;28;20465;-83
2023/11/30 08:23:33;;;;;;;75.83;29.73;;;;;;;;;;4997887;28;20486;-84
2023/11/30 08:26:02;;;;;;;73.00;28.20;;;;;;;;;;4991362;28;20459;-83
2023/11/30 08:28:30;;;;;;;70.23;28.73;;;;;;;;;;4998633;28;20455;-84
2023/11/30 08:31:00;;;;;;;107.10;41.07;;;;;;;;;;4996032;28;20554;-84
2023/11/30 08:33:26;;;;;;;76.13;29.43;;;;;;;;;;4988781;28;20500;-84
2023/11/30 08:35:53;;;;;;;86.10;35.37;;;;;;;;;;4985534;28;20464;-84
2023/11/30 08:38:19;;;;;;;82.87;31.07;;;;;;;;;;4991618;28;20535;-84
2023/11/30 08:40:47;;;;;;;64.47;28.53;;;;;;;;;;4984283;28;20906;-83
2023/11/30 08:43:14;;;;;;;59.13;27.13;;;;;;;;;;4987346;28;20800;-84
2023/11/30 08:45:42;;;;;;;69.90;29.37;;;;;;;;;;4983663;28;20560;-83
2023/11/30 08:48:08;;;;;;;57.37;27.80;;;;;;;;;;4988775;28;20464;-83
2023/11/30 08:50:35;;;;;;;67.07;28.70;;;;;;;;;;4996549;28;20499;-83
2023/11/30 08:53:01;;;;;;;69.43;29.30;;;;;;;;;;4992096;28;20447;-83
2023/11/30 08:55:28;;;;;;;68.30;27.57;;;;;;;;;;4992530;28;21066;-84
2023/11/30 08:57:54;;;;;;;59.00;26.90;;;;;;;;;;4982823;28;20487;-84
2023/11/30 09:00:21;;;;;;;66.70;27.87;;;;;;;;;;4982836;28;20453;-83
2023/11/30 09:02:49;;;;;;;70.37;28.10;;;;;;;;;;4984366;28;20566;-83
2023/11/30 09:05:15;;;;;;;60.50;25.83;;;;;;;;;;4995151;28;20776;-83
2023/11/30 09:07:42;;;;;;;62.17;27.80;;;;;;;;;;4996690;28;21177;-81
2023/11/30 09:10:09;;;;;;;58.80;27.30;;;;;;;;;;4989256;28;20523;-83
2023/11/30 09:12:35;;;;;;;57.80;25.13;;;;;;;;;;4985560;28;21036;-83
2023/11/30 09:15:08;;;;;;;58.53;26.70;;;;;;;;;;4989485;28;20535;-83
2023/11/30 09:17:34;;;;;;;53.33;24.47;;;;;;;;;;4993336;28;20459;-83
2023/11/30 09:20:05;;;;;;;57.60;26.67;;;;;;;;;;4987137;28;20531;-83
2023/11/30 09:22:31;;;;;;;55.97;27.67;;;;;;;;;;4983207;28;20475;-82
2023/11/30 09:24:58;;;;;;;61.03;27.10;;;;;;;;;;4997261;28;20806;-83
2023/11/30 09:27:24;;;;;;;58.40;26.03;;;;;;;;;;4986238;28;21094;-83
2023/11/30 09:29:51;;;;;;;67.53;28.50;;;;;;;;;;4995532;28;20495;-84
2023/11/30 09:32:17;;;;;;;55.60;28.47;;;;;;;;;;4983869;28;20488;-83
2023/11/30 09:34:44;;;;;;;58.27;27.17;;;;;;;;;;4988539;28;20467;-83
2023/11/30 09:37:12;;;;;;;57.77;28.37;;;;;;;;;;4988875;28;20558;-84
2023/11/30 09:39:40;;;;;;;57.50;27.07;;;;;;;;;;4985201;28;20516;-83
2023/11/30 09:42:06;;;;;;;58.53;27.97;;;;;;;;;;4988775;28;20536;-83
2023/11/30 09:44:33;;;;;;;57.83;28.13;;;;;;;;;;4997788;28;20464;-83
2023/11/30 09:47:00;;;;;;;55.13;28.20;;;;;;;;;;4991938;28;20492;-83
2023/11/30 09:49:26;;;;;;;52.17;28.53;;;;;;;;;;4992287;28;20452;-85
2023/11/30 09:51:53;;;;;;;59.80;31.87;;;;;;;;;;4989615;28;20780;-84
2023/11/30 09:54:22;;;;;;;42.90;25.20;;;;;;;;;;4986957;28;20452;-83
2023/11/30 09:56:49;;;;;;;44.37;25.60;;;;;;;;;;4994088;28;20463;-83
2023/11/30 09:59:15;;;;;;;40.33;26.47;;;;;;;;;;4985954;28;20483;-83
2023/11/30 10:01:43;;;;;;;38.20;24.27;;;;;;;;;;4990593;28;20849;-84
2023/11/30 10:04:13;;;;;;;32.20;23.27;;;;;;;;;;4987744;28;20456;-84
2023/11/30 10:06:40;;;;;;;39.47;23.80;;;;;;;;;;4992225;28;20519;-85
2023/11/30 10:09:09;;;;;;;36.10;23.70;;;;;;;;;;4990561;28;20455;-84
2023/11/30 10:11:39;;;;;;;33.10;21.00;;;;;;;;;;4985712;28;20501;-87
2023/11/30 10:14:05;;;;;;;30.80;21.10;;;;;;;;;;4989774;28;20463;-86
2023/11/30 10:16:32;;;;;;;27.80;20.80;;;;;;;;;;5000037;28;20483;-85
2023/11/30 10:18:58;;;;;;;28.77;20.07;;;;;;;;;;4992874;28;20472;-85
2023/11/30 10:21:25;;;;;;;28.30;19.33;;;;;;;;;;4993753;28;20479;-83
2023/11/30 10:23:51;;;;;;;28.90;20.67;;;;;;;;;;5001323;28;20471;-83
2023/11/30 10:26:18;;;;;;;30.13;20.27;;;;;;;;;;4985789;28;20471;-85
2023/11/30 10:28:46;;;;;;;30.63;19.47;;;;;;;;;;4993794;28;20464;-84
2023/11/30 10:31:13;;;;;;;28.73;19.87;;;;;;;;;;4989167;28;20484;-82
2023/11/30 10:33:41;;;;;;;23.40;18.33;;;;;;;;;;5006922;28;20462;-82
2023/11/30 10:36:08;;;;;;;31.07;20.13;;;;;;;;;;4997456;28;20445;-81
2023/11/30 10:38:34;;;;;;;28.93;19.47;;;;;;;;;;4990101;28;20531;-82
2023/11/30 10:41:02;;;;;;;28.83;20.13;;;;;;;;;;5003021;28;20463;-82
2023/11/30 10:43:29;;;;;;;33.13;22.20;;;;;;;;;;4995354;28;20461;-82
2023/11/30 10:46:00;;;;;;;25.47;18.30;;;;;;;;;;4992528;28;20455;-82
2023/11/30 10:48:28;;;;;;;31.50;19.90;;;;;;;;;;4993550;28;20475;-83
2023/11/30 10:50:54;;;;;;;31.40;20.30;;;;;;;;;;4995683;28;20537;-83
2023/11/30 10:53:24;;;;;;;31.70;20.43;;;;;;;;;;4999850;28;20519;-84
2023/11/30 10:55:51;;;;;;;30.00;19.37;;;;;;;;;;4989938;28;20612;-85
2023/11/30 10:58:21;;;;;;;33.07;20.73;;;;;;;;;;4993572;28;20488;-82
2023/11/30 11:00:52;;;;;;;28.57;19.03;;;;;;;;;;4991264;28;20460;-83
2023/11/30 11:03:21;;;;;;;27.57;17.93;;;;;;;;;;4991769;28;20554;-84
2023/11/30 11:05:50;;;;;;;28.43;19.73;;;;;;;;;;5004406;28;20498;-84
2023/11/30 11:08:17;;;;;;;29.37;19.37;;;;;;;;;;5012466;28;20533;-85
2023/11/30 11:10:46;;;;;;;31.07;19.87;;;;;;;;;;4994742;28;20995;-85
2023/11/30 11:13:17;;;;;;;23.67;17.87;;;;;;;;;;4989884;28;20562;-85
2023/11/30 11:15:44;;;;;;;31.33;21.10;;;;;;;;;;4992818;28;20490;-84
2023/11/30 11:18:12;;;;;;;28.37;19.67;;;;;;;;;;5000160;28;20542;-85
2023/11/30 11:20:40;;;;;;;30.10;20.00;;;;;;;;;;4984886;28;20487;-84
2023/11/30 11:23:08;;;;;;;27.73;18.60;;;;;;;;;;4985474;28;20496;-86
2023/11/30 11:25:36;;;;;;;24.23;19.10;;;;;;;;;;5002796;28;20450;-84
2023/11/30 11:28:02;;;;;;;27.27;20.33;;;;;;;;;;5005921;28;20506;-87
2023/11/30 11:30:29;;;;;;;22.67;18.63;;;;;;;;;;4993757;28;20553;-86
2023/11/30 11:32:57;;;;;;;25.53;19.27;;;;;;;;;;4999552;28;20452;-84
2023/11/30 11:35:24;;;;;;;29.07;19.07;;;;;;;;;;5003644;28;20964;-87
2023/11/30 11:37:52;;;;;;;27.57;20.10;;;;;;;;;;5001078;28;20521;-86
2023/11/30 11:40:20;;;;;;;29.80;21.97;;;;;;;;;;4998048;28;20492;-84
2023/11/30 11:42:47;;;;;;;24.20;21.07;;;;;;;;;;4992611;28;21085;-85
2023/11/30 11:45:14;;;;;;;28.43;23.13;;;;;;;;;;4999325;28;20608;-85
2023/11/30 11:47:40;;;;;;;25.70;21.43;;;;;;;;;;4995047;28;21004;-86
2023/11/30 11:50:10;;;;;;;25.67;19.10;;;;;;;;;;4996660;28;20463;-84
2023/11/30 11:52:36;;;;;;;25.00;17.53;;;;;;;;;;5000697;28;20472;-85
2023/11/30 11:55:07;;;;;;;23.27;18.93;;;;;;;;;;4993811;28;20516;-85
2023/11/30 11:57:35;;;;;;;26.33;19.07;;;;;;;;;;5001559;28;20475;-84
2023/11/30 12:00:01;;;;;;;25.40;18.53;;;;;;;;;;4998380;28;20490;-82
2023/11/30 12:02:28;;;;;;;20.90;18.17;;;;;;;;;;4992340;28;20531;-85
2023/11/30 12:04:54;;;;;;;28.30;20.67;;;;;;;;;;4994577;28;20507;-86
2023/11/30 12:07:21;;;;;;;23.93;19.33;;;;;;;;;;5005529;28;20508;-85
2023/11/30 12:09:54;;;;;;;27.23;19.20;;;;;;;;;;4991295;28;20464;-85
2023/11/30 12:12:30;;;;;;;22.40;17.60;;;;;;;;;;4997902;28;20487;-84
2023/11/30 12:14:56;;;;;;;19.93;16.80;;;;;;;;;;4996819;28;20506;-84
2023/11/30 12:17:23;;;;;;;22.03;17.10;;;;;;;;;;4998591;28;20497;-85
2023/11/30 12:19:50;;;;;;;26.10;18.67;;;;;;;;;;5009090;28;20450;-85
2023/11/30 12:22:16;;;;;;;23.20;17.60;;;;;;;;;;4995647;28;20841;-84
2023/11/30 12:24:43;;;;;;;24.00;17.67;;;;;;;;;;4990295;28;20477;-83
2023/11/30 12:27:09;;;;;;;25.40;17.57;;;;;;;;;;4997284;28;20464;-84
2023/11/30 12:29:37;;;;;;;23.93;17.63;;;;;;;;;;4987837;28;20500;-85
2023/11/30 12:32:03;;;;;;;27.40;19.70;;;;;;;;;;5003342;28;20486;-84
2023/11/30 12:34:31;;;;;;;23.27;19.57;;;;;;;;;;4993075;28;20959;-86
2023/11/30 12:36:57;;;;;;;24.47;17.37;;;;;;;;;;4995252;28;20464;-85
2023/11/30 12:39:24;;;;;;;23.40;19.03;;;;;;;;;;5002726;28;20484;-85
2023/11/30 12:41:50;;;;;;;23.37;17.67;;;;;;;;;;4985033;28;20922;-85
2023/11/30 12:44:17;;;;;;;23.87;17.90;;;;;;;;;;4994656;28;20645;-84
2023/11/30 12:46:45;;;;;;;23.53;18.00;;;;;;;;;;4991988;28;20469;-84
2023/11/30 12:49:11;;;;;;;23.30;18.07;;;;;;;;;;5005261;28;20512;-85
2023/11/30 12:51:38;;;;;;;23.90;18.20;;;;;;;;;;4994579;28;20570;-84
2023/11/30 12:54:04;;;;;;;25.40;18.40;;;;;;;;;;4984427;28;20460;-83
2023/11/30 12:56:31;;;;;;;25.73;19.20;;;;;;;;;;4991602;28;20491;-83
2023/11/30 12:58:57;;;;;;;26.10;18.37;;;;;;;;;;4988036;28;20475;-84
2023/11/30 13:01:24;;;;;;;28.00;19.23;;;;;;;;;;4987569;28;20484;-84
2023/11/30 13:03:52;;;;;;;25.50;16.07;;;;;;;;;;4988137;28;20522;-83
2023/11/30 13:06:18;;;;;;;22.87;17.30;;;;;;;;;;4994108;28;20460;-84
2023/11/30 13:08:44;;;;;;;29.30;19.53;;;;;;;;;;4989575;28;20527;-85
2023/11/30 13:11:11;;;;;;;26.37;20.20;;;;;;;;;;4990836;28;20546;-83
2023/11/30 13:13:37;;;;;;;27.27;22.10;;;;;;;;;;4994082;28;20702;-83
2023/11/30 13:16:06;;;;;;;25.00;21.20;;;;;;;;;;4982899;28;20460;-81
2023/11/30 13:18:32;;;;;;;24.43;17.37;;;;;;;;;;4981583;28;20488;-82
2023/11/30 13:21:01;;;;;;;24.10;18.43;;;;;;;;;;4991238;28;20523;-81
2023/11/30 13:23:27;;;;;;;20.97;17.50;;;;;;;;;;4986369;28;20460;-80
2023/11/30 13:25:53;;;;;;;26.97;18.93;;;;;;;;;;4986011;28;20468;-81
2023/11/30 13:28:20;;;;;;;27.10;19.30;;;;;;;;;;4992845;28;20452;-82
2023/11/30 13:30:46;;;;;;;22.73;18.07;;;;;;;;;;4986617;28;20471;-81
2023/11/30 13:33:13;;;;;;;23.80;18.30;;;;;;;;;;4985519;28;20466;-82
2023/11/30 13:35:39;;;;;;;26.70;19.03;;;;;;;;;;4985534;28;20535;-82
2023/11/30 13:38:10;;;;;;;28.57;19.33;;;;;;;;;;4994200;28;21268;-84
2023/11/30 13:40:36;;;;;;;29.00;19.50;;;;;;;;;;4986041;28;20977;-83
2023/11/30 13:43:03;;;;;;;30.87;17.80;;;;;;;;;;4990865;28;20479;-83
2023/11/30 13:45:30;;;;;;;24.33;18.23;;;;;;;;;;4987301;28;20515;-82
2023/11/30 13:47:56;;;;;;;24.60;17.30;;;;;;;;;;4986383;28;20538;-83
2023/11/30 13:50:23;;;;;;;23.27;16.30;;;;;;;;;;4989281;28;20464;-81
2023/11/30 13:52:50;;;;;;;25.90;18.63;;;;;;;;;;4984010;28;21041;-81
2023/11/30 13:55:17;;;;;;;27.10;17.73;;;;;;;;;;4987505;28;20463;-85
2023/11/30 13:57:44;;;;;;;23.97;17.43;;;;;;;;;;4984806;28;20472;-84
2023/11/30 14:00:12;;;;;;;25.13;18.30;;;;;;;;;;4988237;28;20471;-83
2023/11/30 14:02:39;;;;;;;21.83;17.20;;;;;;;;;;4986786;28;20503;-85
2023/11/30 14:05:06;;;;;;;25.23;17.50;;;;;;;;;;4983938;28;20455;-86
2023/11/30 14:07:33;;;;;;;28.40;17.77;;;;;;;;;;4982496;28;20464;-85
2023/11/30 14:10:00;;;;;;;26.60;18.37;;;;;;;;;;4987970;28;20465;-85
2023/11/30 14:12:28;;;;;;;26.87;17.90;;;;;;;;;;4985156;28;20544;-85
2023/11/30 14:14:54;;;;;;;25.43;18.97;;;;;;;;;;4988184;28;20472;-83
2023/11/30 14:17:21;;;;;;;24.00;16.87;;;;;;;;;;4988994;28;20491;-86
2023/11/30 14:19:47;;;;;;;26.27;17.30;;;;;;;;;;4991776;28;20440;-86
2023/11/30 14:22:14;;;;;;;26.63;18.23;;;;;;;;;;4983194;28;20995;-85
2023/11/30 14:24:41;;;;;;;24.10;18.40;;;;;;;;;;4986355;28;20448;-85
2023/11/30 14:27:07;;;;;;;26.67;18.03;;;;;;;;;;4984275;28;20463;-81
2023/11/30 14:29:35;;;;;;;28.73;18.23;;;;;;;;;;4986729;28;20483;-82
2023/11/30 14:32:03;;;;;;;29.33;19.97;;;;;;;;;;4986959;28;20488;-82
2023/11/30 14:34:30;;;;;;;30.40;18.40;;;;;;;;;;4984405;28;20449;-85
2023/11/30 14:36:56;;;;;;;29.83;18.13;;;;;;;;;;4990660;28;20464;-85
2023/11/30 14:39:27;;;;;;;23.00;17.87;;;;;;;;;;4984782;28;20476;-85
2023/11/30 14:41:55;;;;;;;26.77;17.60;;;;;;;;;;4986551;28;20492;-83
2023/11/30 14:44:21;;;;;;;32.37;20.87;;;;;;;;;;4980078;28;20464;-83
2023/11/30 14:46:50;;;;;;;30.60;19.87;;;;;;;;;;4983943;28;20551;-83
2023/11/30 14:49:17;;;;;;;35.73;19.60;;;;;;;;;;4982843;28;20494;-82
2023/11/30 14:51:44;;;;;;;30.50;22.03;;;;;;;;;;4988432;28;20495;-85
2023/11/30 14:54:11;;;;;;;30.93;19.80;;;;;;;;;;4987216;28;21000;-82
2023/11/30 14:56:38;;;;;;;34.43;20.93;;;;;;;;;;4999049;28;20463;-85
2023/11/30 14:59:06;;;;;;;33.67;19.33;;;;;;;;;;4985148;28;20550;-84